CST,Max TemperatureF,Mean TemperatureF,Min TemperatureF,Max Dew PointF,MeanDew PointF,Min DewpointF,Max Humidity, Mean Humidity, Min Humidity, Max Sea Level PressureIn, Mean Sea Level PressureIn, Min Sea Level PressureIn, Max VisibilityMiles, Mean VisibilityMiles, Min VisibilityMiles, Max Wind SpeedMPH, Mean Wind SpeedMPH, Max Gust SpeedMPH,PrecipitationIn, CloudCover, Events, WindDirDegrees
2014-1-1,19,12,6,14,8,1,84,76,65,30.35,30.29,30.20,7,2,0,21,12,25,0.05,8,Fog-Snow,31
2014-1-2,19,7,-5,13,7,-11,81,73,61,30.43,30.24,30.15,10,4,1,16,11,23,0.01,6,Snow,353
2014-1-3,19,5,-9,11,-1,-16,86,69,56,30.45,30.24,29.89,10,8,4,28,12,37,0.00,1,,221
2014-1-4,30,24,19,26,22,12,89,79,63,30.06,29.89,29.78,10,4,0,24,17,37,0.05,7,Fog-Snow,248
2014-1-5,21,10,-4,14,2,-15,74,64,54,30.12,30.04,29.95,10,5,0,23,13,33,0.01,8,Snow,340
2014-1-6,-6,-10,-14,-17,-22,-26,68,60,52,30.25,30.17,30.05,10,8,2,24,19,34,0.00,1,,277
2014-1-7,1,-6,-14,-9,-16,-23,76,65,54,30.34,30.29,30.24,10,10,5,17,13,25,0.00,0,,249
2014-1-8,9,-1,-11,-5,-10,-16,83,69,51,30.56,30.46,30.33,10,8,5,9,3,,0.00,0,,278
2014-1-9,25,7,-11,22,6,-17,88,80,68,30.57,30.37,30.13,10,4,2,13,5,,0.00,5,Snow,182
2014-1-10,41,33,25,38,31,22,93,91,86,30.14,29.82,29.49,8,2,0,20,8,25,0.56,8,Fog-Rain,172
2014-1-11,39,36,30,37,32,25,97,87,72,29.76,29.48,29.39,9,4,0,20,11,26,0.02,8,Fog-Rain,263
2014-1-12,42,34,27,32,27,23,89,74,57,29.83,29.72,29.58,10,8,3,23,14,31,0.00,3,,217
2014-1-13,42,35,26,32,29,19,82,76,65,29.76,29.61,29.53,10,10,10,16,10,23,0.00,1,,241
2014-1-14,36,28,21,31,22,15,89,80,54,29.86,29.68,29.53,10,4,1,26,14,39,0.03,7,Snow,249
2014-1-15,19,16,12,15,9,5,81,72,65,30.08,29.98,29.82,10,9,3,20,14,25,0.00,4,Snow,271
2014-1-16,34,26,17,31,22,9,89,79,68,29.75,29.55,29.43,10,6,1,23,16,29,0.04,7,Snow,225
2014-1-17,19,14,10,13,9,2,81,73,64,29.96,29.87,29.70,10,8,2,16,13,,0.00,7,Snow,264
2014-1-18,21,15,9,19,12,3,92,82,71,29.92,29.85,29.75,10,5,0,10,7,,0.04,6,Fog-Snow,252
2014-1-19,35,21,8,27,18,4,84,75,66,29.84,29.65,29.52,10,9,5,25,15,36,0.00,2,,249
2014-1-20,35,22,8,26,16,1,89,81,70,30.15,29.92,29.61,10,6,1,21,10,26,0.01,8,Snow,12
2014-1-21,7,0,-6,-2,-8,-12,76,63,53,30.35,30.27,30.17,10,10,6,18,13,30,0.00,2,,313
2014-1-22,12,6,0,7,-1,-12,79,69,57,30.19,29.99,29.85,10,5,0,16,10,26,0.00,6,Snow,263
2014-1-23,8,2,-5,-3,-8,-14,68,63,55,30.60,30.46,30.20,10,10,3,20,15,25,0.00,1,Snow,290
2014-1-24,23,8,-7,25,7,-15,71,62,53,30.50,29.81,29.39,10,6,2,37,20,46,0.00,6,Snow,232
2014-1-25,32,18,5,29,11,-8,89,66,42,29.86,29.55,29.35,10,8,2,23,17,31,0.01,3,Rain-Snow,287
2014-1-26,27,16,6,18,6,-4,84,73,52,29.80,29.54,29.36,10,5,1,25,11,44,0.08,7,Snow,228
2014-1-27,5,-2,-9,-6,-15,-20,65,56,49,30.43,30.23,29.85,10,10,10,22,18,32,0.00,1,,284
2014-1-28,1,-6,-13,-9,-15,-20,71,62,54,30.43,30.35,30.23,10,10,10,20,14,26,0.00,0,,255
2014-1-29,21,10,-2,6,-2,-9,72,57,46,30.22,30.13,29.96,10,10,10,22,15,29,0.00,0,,229
2014-1-30,32,26,21,25,18,6,88,68,49,29.94,29.75,29.61,10,8,0,24,19,40,0.02,5,Fog-Snow,223
2014-1-31,23,16,10,15,7,1,75,64,54,30.17,30.10,29.91,10,10,10,15,8,18,0.00,2,,289